createdAt,value
2017-12-30T00:00:09.700Z,977.77
2017-12-30T00:01:16.496Z,977.76
2017-12-30T00:02:23.256Z,977.77
2017-12-30T00:03:30.016Z,977.77
2017-12-30T00:04:36.748Z,977.78
2017-12-30T00:05:43.481Z,977.69
2017-12-30T00:06:50.220Z,977.76
2017-12-30T00:07:57.033Z,977.82
2017-12-30T00:09:03.759Z,977.75
2017-12-30T00:10:10.480Z,977.81
2017-12-30T00:11:17.248Z,977.81
2017-12-30T00:12:23.971Z,977.79
2017-12-30T00:13:30.773Z,977.83
2017-12-30T00:14:37.543Z,977.94
2017-12-30T00:15:44.277Z,977.90
2017-12-30T00:16:51.040Z,977.85
2017-12-30T00:17:57.948Z,977.93
2017-12-30T00:19:04.672Z,978.01
2017-12-30T00:20:11.490Z,977.98
2017-12-30T00:21:18.284Z,977.98
2017-12-30T00:22:25.016Z,977.90
2017-12-30T00:23:31.748Z,977.87
2017-12-30T00:24:38.454Z,977.93
2017-12-30T00:25:45.257Z,977.92
2017-12-30T00:26:51.987Z,978.08
2017-12-30T00:27:58.787Z,978.00
2017-12-30T00:29:05.536Z,978.02
2017-12-30T00:30:12.275Z,978.03
2017-12-30T00:31:24.320Z,977.95
2017-12-30T00:32:31.145Z,978.00
2017-12-30T00:33:33.076Z,978.00
2017-12-30T00:34:39.797Z,978.08
2017-12-30T00:35:46.507Z,978.01
2017-12-30T00:36:53.291Z,977.97
2017-12-30T00:38:00.215Z,978.04
2017-12-30T00:39:07.099Z,978.05
2017-12-30T00:40:13.840Z,978.00
2017-12-30T00:41:20.556Z,977.94
2017-12-30T00:42:27.297Z,977.97
2017-12-30T00:43:34.003Z,977.92
2017-12-30T00:44:40.852Z,977.96
2017-12-30T00:45:47.567Z,978.00
2017-12-30T00:46:54.271Z,978.00
2017-12-30T00:48:01.013Z,978.00
2017-12-30T00:49:07.759Z,977.98
2017-12-30T00:50:14.581Z,978.03
2017-12-30T00:51:21.289Z,978.06
2017-12-30T00:52:28.103Z,977.97
2017-12-30T00:53:34.811Z,977.95
2017-12-30T00:54:41.700Z,978.03
2017-12-30T00:55:48.468Z,977.98
2017-12-30T00:56:55.264Z,978.04
2017-12-30T00:58:02.108Z,978.01
2017-12-30T00:59:08.868Z,977.94
2017-12-30T01:00:15.668Z,977.98
2017-12-30T01:01:22.555Z,978.01
2017-12-30T01:02:29.287Z,977.94
2017-12-30T01:03:36.073Z,977.96
2017-12-30T01:04:42.836Z,977.92
2017-12-30T01:05:49.660Z,977.84
2017-12-30T01:06:56.445Z,977.91
2017-12-30T01:08:03.431Z,977.91
2017-12-30T01:09:10.178Z,977.89
2017-12-30T01:10:16.965Z,977.94
2017-12-30T01:11:23.727Z,977.99
2017-12-30T01:12:30.521Z,977.90
2017-12-30T01:13:37.357Z,978.01
2017-12-30T01:14:44.143Z,978.06
2017-12-30T01:15:50.979Z,978.06
2017-12-30T01:16:57.755Z,977.99
2017-12-30T01:18:04.533Z,977.95
2017-12-30T01:19:11.406Z,977.97
2017-12-30T01:20:18.205Z,977.92
2017-12-30T01:21:25.000Z,977.89
2017-12-30T01:22:31.860Z,977.98
2017-12-30T01:23:38.649Z,978.02
2017-12-30T01:24:45.411Z,977.98
2017-12-30T01:25:52.332Z,977.90
2017-12-30T01:26:59.153Z,977.84
2017-12-30T01:28:05.929Z,977.86
2017-12-30T01:29:12.747Z,977.85
2017-12-30T01:30:19.649Z,977.76
2017-12-30T01:31:26.672Z,977.79
2017-12-30T01:32:33.433Z,977.75
2017-12-30T01:33:40.200Z,977.79
2017-12-30T01:34:47.013Z,977.77
2017-12-30T01:35:53.806Z,977.72
2017-12-30T01:37:00.602Z,977.63
2017-12-30T01:38:07.424Z,977.59
2017-12-30T01:39:14.450Z,977.55
2017-12-30T01:40:21.287Z,977.48
2017-12-30T01:41:28.129Z,977.50
2017-12-30T01:42:34.891Z,977.43
2017-12-30T01:43:41.684Z,977.36
2017-12-30T01:44:48.471Z,977.46
2017-12-30T01:45:55.266Z,977.45
2017-12-30T01:47:02.185Z,977.45
2017-12-30T01:48:09.191Z,977.49
2017-12-30T01:49:15.989Z,977.45
2017-12-30T01:50:22.791Z,977.53
2017-12-30T01:51:29.604Z,977.51
2017-12-30T01:52:36.471Z,977.52
2017-12-30T01:53:43.243Z,977.52
2017-12-30T01:54:50.050Z,977.46
2017-12-30T01:55:56.924Z,977.33
2017-12-30T01:57:03.723Z,977.41
2017-12-30T01:58:10.548Z,977.40
2017-12-30T01:59:17.365Z,977.36
2017-12-30T02:00:24.167Z,977.37
2017-12-30T02:01:30.975Z,977.32
2017-12-30T02:02:37.811Z,977.32
2017-12-30T02:03:44.629Z,977.28
2017-12-30T02:04:51.469Z,977.28
2017-12-30T02:05:58.249Z,977.27
2017-12-30T02:07:05.044Z,977.19
2017-12-30T02:08:11.836Z,977.14
2017-12-30T02:09:18.693Z,977.09
2017-12-30T02:10:25.496Z,977.00
2017-12-30T02:11:32.376Z,976.97
2017-12-30T02:12:39.184Z,976.94
2017-12-30T02:13:45.977Z,976.93
2017-12-30T02:14:52.748Z,977.10
2017-12-30T02:15:59.502Z,977.04
2017-12-30T02:17:06.296Z,977.09
2017-12-30T02:18:13.049Z,977.01
2017-12-30T02:19:19.764Z,977.08
2017-12-30T02:20:26.516Z,977.20
2017-12-30T02:21:33.373Z,977.17
2017-12-30T02:22:40.196Z,977.08
2017-12-30T02:23:46.951Z,976.95
2017-12-30T02:24:53.677Z,976.89
2017-12-30T02:26:00.444Z,976.91
2017-12-30T02:27:07.173Z,976.85
2017-12-30T02:28:13.933Z,976.84
2017-12-30T02:29:20.695Z,976.78
2017-12-30T02:30:27.528Z,976.76
2017-12-30T02:31:34.266Z,976.82
2017-12-30T02:32:41.028Z,976.79
2017-12-30T02:33:47.779Z,976.74
2017-12-30T02:34:54.627Z,976.72
2017-12-30T02:36:01.372Z,976.69
2017-12-30T02:37:08.236Z,976.64
2017-12-30T02:38:15.092Z,976.57
2017-12-30T02:39:21.825Z,976.57
2017-12-30T02:40:28.561Z,976.60
2017-12-30T02:41:35.312Z,976.66
2017-12-30T02:42:42.156Z,976.68
2017-12-30T02:43:48.899Z,976.62
2017-12-30T02:44:55.663Z,976.63
2017-12-30T02:46:02.446Z,976.61
2017-12-30T02:47:09.116Z,976.56
2017-12-30T02:48:15.916Z,976.53
2017-12-30T02:49:22.672Z,976.53
2017-12-30T02:50:29.491Z,976.50
2017-12-30T02:51:36.341Z,976.56
2017-12-30T02:52:43.081Z,976.46
2017-12-30T02:53:49.861Z,976.46
2017-12-30T02:54:56.604Z,976.38
2017-12-30T02:56:03.429Z,976.39
2017-12-30T02:57:10.180Z,976.35
2017-12-30T02:58:16.925Z,976.41
2017-12-30T02:59:23.683Z,976.38
2017-12-30T03:00:30.599Z,976.33
2017-12-30T03:01:37.313Z,976.35
2017-12-30T03:02:44.075Z,976.46
2017-12-30T03:03:50.828Z,976.40
2017-12-30T03:04:57.644Z,976.47
2017-12-30T03:06:04.478Z,976.49
2017-12-30T03:07:11.407Z,976.52
2017-12-30T03:08:18.170Z,976.45
2017-12-30T03:09:24.973Z,976.42
2017-12-30T03:10:31.746Z,976.31
2017-12-30T03:11:38.507Z,976.22
2017-12-30T03:12:45.392Z,976.12
2017-12-30T03:13:52.129Z,976.09
2017-12-30T03:14:58.992Z,976.13
2017-12-30T03:16:05.752Z,976.13
2017-12-30T03:17:12.552Z,976.21
2017-12-30T03:18:19.405Z,976.18
2017-12-30T03:19:26.191Z,976.23
2017-12-30T03:20:32.987Z,976.13
2017-12-30T03:21:39.857Z,976.07
2017-12-30T03:22:46.632Z,976.08
2017-12-30T03:23:53.400Z,976.05
2017-12-30T03:25:00.283Z,976.03
2017-12-30T03:26:07.082Z,975.95
2017-12-30T03:27:13.858Z,975.95
2017-12-30T03:28:20.757Z,975.96
2017-12-30T03:29:27.574Z,975.88
2017-12-30T03:30:34.356Z,975.94
2017-12-30T03:31:41.196Z,975.89
2017-12-30T03:32:48.000Z,975.80
2017-12-30T03:33:54.778Z,975.85
2017-12-30T03:35:01.632Z,975.83
2017-12-30T03:36:08.444Z,975.90
2017-12-30T03:37:15.237Z,975.84
2017-12-30T03:38:22.056Z,975.84
2017-12-30T03:39:28.827Z,975.80
2017-12-30T03:40:35.632Z,975.77
2017-12-30T03:41:42.532Z,975.80
2017-12-30T03:42:49.547Z,975.79
2017-12-30T03:43:56.348Z,975.80
2017-12-30T03:45:03.169Z,975.82
2017-12-30T03:46:09.964Z,975.85
2017-12-30T03:47:16.812Z,975.73
2017-12-30T03:48:23.593Z,975.78
2017-12-30T03:49:30.389Z,975.68
2017-12-30T03:50:37.269Z,975.69
2017-12-30T03:51:44.078Z,975.75
2017-12-30T03:52:50.914Z,975.71
2017-12-30T03:53:57.708Z,975.74
2017-12-30T03:55:04.533Z,975.72
2017-12-30T03:56:11.341Z,975.74
2017-12-30T03:57:18.197Z,975.73
2017-12-30T03:58:25.029Z,975.71
2017-12-30T03:59:31.850Z,975.63
2017-12-30T04:00:38.667Z,975.57
2017-12-30T04:01:45.517Z,975.61
2017-12-30T04:02:52.428Z,975.65
2017-12-30T04:03:59.256Z,975.62
2017-12-30T04:05:06.069Z,975.60
2017-12-30T04:06:12.921Z,975.64
2017-12-30T04:07:19.776Z,975.61
2017-12-30T04:08:26.703Z,975.51
2017-12-30T04:09:33.512Z,975.49
2017-12-30T04:10:40.336Z,975.41
2017-12-30T04:11:47.177Z,975.39
2017-12-30T04:12:54.108Z,975.43
2017-12-30T04:14:01.044Z,975.46
2017-12-30T04:15:07.939Z,975.48
2017-12-30T04:16:14.764Z,975.46
2017-12-30T04:17:21.670Z,975.47
2017-12-30T04:18:28.592Z,975.37
2017-12-30T04:19:35.410Z,975.33
2017-12-30T04:20:42.124Z,975.30
2017-12-30T04:21:48.863Z,975.32
2017-12-30T04:22:55.680Z,975.31
2017-12-30T04:24:02.408Z,975.21
2017-12-30T04:25:09.152Z,975.18
2017-12-30T04:26:15.879Z,975.19
2017-12-30T04:27:23.512Z,975.04
2017-12-30T04:28:29.775Z,975.06
2017-12-30T04:29:36.561Z,975.06
2017-12-30T04:30:43.280Z,975.06
2017-12-30T04:31:50.112Z,975.06
2017-12-30T04:32:56.832Z,974.97
2017-12-30T04:34:03.701Z,974.97
2017-12-30T04:35:10.464Z,974.96
2017-12-30T04:36:17.192Z,974.89
2017-12-30T04:37:23.974Z,974.89
2017-12-30T04:38:30.808Z,974.87
2017-12-30T04:39:37.556Z,974.87
2017-12-30T04:40:44.339Z,974.89
2017-12-30T04:41:51.152Z,974.91
2017-12-30T04:42:57.920Z,974.92
2017-12-30T04:44:04.676Z,974.95
2017-12-30T04:45:11.385Z,974.86
2017-12-30T04:46:18.115Z,975.00
2017-12-30T04:47:24.840Z,975.05
2017-12-30T04:48:31.625Z,975.04
2017-12-30T04:49:38.397Z,974.90
2017-12-30T04:50:45.128Z,974.99
2017-12-30T04:51:51.836Z,974.81
2017-12-30T04:52:58.686Z,974.83
2017-12-30T04:54:05.452Z,974.87
2017-12-30T04:55:12.197Z,974.87
2017-12-30T04:56:18.913Z,974.85
2017-12-30T04:57:25.788Z,974.85
2017-12-30T04:58:32.480Z,974.78
2017-12-30T04:59:39.228Z,974.75
2017-12-30T05:00:45.989Z,974.76
2017-12-30T05:01:52.719Z,974.70
2017-12-30T05:02:59.500Z,974.69
2017-12-30T05:04:06.446Z,974.66
2017-12-30T05:05:13.325Z,974.59
2017-12-30T05:06:20.108Z,974.61
2017-12-30T05:07:26.899Z,974.54
2017-12-30T05:08:33.720Z,974.61
2017-12-30T05:09:40.477Z,974.46
2017-12-30T05:10:47.218Z,974.40
2017-12-30T05:11:53.952Z,974.28
2017-12-30T05:13:00.785Z,974.36
2017-12-30T05:14:07.553Z,974.30
2017-12-30T05:15:14.301Z,974.30
2017-12-30T05:16:21.035Z,974.34
2017-12-30T05:17:27.833Z,974.33
2017-12-30T05:18:34.722Z,974.46
2017-12-30T05:19:41.477Z,974.38
2017-12-30T05:20:48.296Z,974.44
2017-12-30T05:21:55.028Z,974.43
2017-12-30T05:23:01.788Z,974.38
2017-12-30T05:24:08.522Z,974.32
2017-12-30T05:25:15.388Z,974.20
2017-12-30T05:26:22.146Z,974.22
2017-12-30T05:27:28.860Z,974.08
2017-12-30T05:28:35.625Z,974.11
2017-12-30T05:29:42.340Z,974.10
2017-12-30T05:30:49.149Z,974.12
2017-12-30T05:31:55.899Z,974.08
2017-12-30T05:33:02.642Z,974.09
2017-12-30T05:34:09.401Z,974.09
2017-12-30T05:35:16.229Z,974.01
2017-12-30T05:36:22.999Z,973.96
2017-12-30T05:37:29.745Z,973.95
2017-12-30T05:38:36.508Z,974.00
2017-12-30T05:39:43.323Z,973.95
2017-12-30T05:40:50.092Z,973.86
2017-12-30T05:41:56.832Z,973.94
2017-12-30T05:43:03.572Z,973.88
2017-12-30T05:44:10.289Z,973.92
2017-12-30T05:45:17.188Z,973.89
2017-12-30T05:46:23.969Z,973.85
2017-12-30T05:47:30.693Z,973.81
2017-12-30T05:48:37.392Z,973.85
2017-12-30T05:49:44.174Z,973.78
2017-12-30T05:50:50.895Z,973.80
2017-12-30T05:51:57.677Z,973.69
2017-12-30T05:53:04.414Z,973.70
2017-12-30T05:54:11.132Z,973.69
2017-12-30T05:55:17.933Z,973.66
2017-12-30T05:56:24.728Z,973.70
2017-12-30T05:57:31.459Z,973.84
2017-12-30T05:58:38.391Z,973.72
2017-12-30T05:59:45.121Z,973.73
2017-12-30T06:00:51.896Z,973.64
2017-12-30T06:01:58.672Z,973.63
2017-12-30T06:03:05.484Z,973.61
2017-12-30T06:04:17.410Z,973.60
2017-12-30T06:05:19.307Z,973.64
2017-12-30T06:06:26.455Z,973.52
2017-12-30T06:07:33.367Z,973.54
2017-12-30T06:08:40.258Z,973.53
2017-12-30T06:09:47.177Z,973.55
2017-12-30T06:10:54.009Z,973.49
2017-12-30T06:12:00.809Z,973.52
2017-12-30T06:13:07.630Z,973.46
2017-12-30T06:14:14.489Z,973.49
2017-12-30T06:15:21.305Z,973.31
2017-12-30T06:16:28.119Z,973.29
2017-12-30T06:17:34.973Z,973.22
2017-12-30T06:18:41.756Z,973.25
2017-12-30T06:19:48.586Z,973.17
2017-12-30T06:20:55.425Z,973.16
2017-12-30T06:22:02.282Z,973.08
2017-12-30T06:23:09.188Z,973.11
2017-12-30T06:24:16.048Z,973.06
2017-12-30T06:25:22.944Z,973.01
2017-12-30T06:26:29.749Z,972.88
2017-12-30T06:27:36.600Z,972.85
2017-12-30T06:28:43.447Z,972.85
2017-12-30T06:29:50.277Z,972.74
2017-12-30T06:30:57.184Z,972.75
2017-12-30T06:32:03.985Z,972.67
2017-12-30T06:33:10.781Z,972.69
2017-12-30T06:34:17.653Z,972.66
2017-12-30T06:35:24.478Z,972.63
2017-12-30T06:36:31.476Z,972.59
2017-12-30T06:37:38.296Z,972.59
2017-12-30T06:38:45.121Z,972.62
2017-12-30T06:39:52.001Z,972.55
2017-12-30T06:40:58.830Z,972.56
2017-12-30T06:42:05.692Z,972.52
2017-12-30T06:43:12.501Z,972.46
2017-12-30T06:44:19.381Z,972.54
2017-12-30T06:45:26.238Z,972.52
2017-12-30T06:46:33.093Z,972.53
2017-12-30T06:47:39.949Z,972.60
2017-12-30T06:48:46.828Z,972.57
2017-12-30T06:49:53.735Z,972.61
2017-12-30T06:51:00.562Z,972.57
2017-12-30T06:52:07.512Z,972.53
2017-12-30T06:53:14.336Z,972.51
2017-12-30T06:54:21.230Z,972.51
2017-12-30T06:55:28.092Z,972.54
2017-12-30T06:56:34.955Z,972.45
2017-12-30T06:57:41.786Z,972.37
2017-12-30T06:58:48.653Z,972.41
2017-12-30T06:59:55.607Z,972.40
2017-12-30T07:01:02.477Z,972.48
2017-12-30T07:02:09.365Z,972.43
2017-12-30T07:03:16.233Z,972.42
2017-12-30T07:04:23.151Z,972.44
2017-12-30T07:05:29.985Z,972.42
2017-12-30T07:06:36.789Z,972.28
2017-12-30T07:07:43.645Z,972.36
2017-12-30T07:08:50.440Z,972.35
2017-12-30T07:09:57.540Z,972.26
2017-12-30T07:11:04.375Z,972.27
2017-12-30T07:12:11.208Z,972.21
2017-12-30T07:13:18.086Z,972.20
2017-12-30T07:14:25.005Z,972.17
2017-12-30T07:15:31.908Z,972.24
2017-12-30T07:16:38.785Z,972.23
2017-12-30T07:17:45.608Z,972.21
2017-12-30T07:18:52.573Z,972.15
2017-12-30T07:19:59.396Z,972.08
2017-12-30T07:21:06.253Z,972.08
2017-12-30T07:22:13.084Z,972.06
2017-12-30T07:23:19.937Z,972.03
2017-12-30T07:24:26.784Z,972.06
2017-12-30T07:25:33.633Z,972.08
2017-12-30T07:26:40.485Z,972.09
2017-12-30T07:27:47.385Z,972.02
2017-12-30T07:28:54.237Z,972.08
2017-12-30T07:30:01.057Z,972.04
2017-12-30T07:31:07.921Z,972.06
2017-12-30T07:32:14.841Z,971.96
2017-12-30T07:33:21.690Z,972.00
2017-12-30T07:34:28.634Z,972.06
2017-12-30T07:35:35.480Z,972.00
2017-12-30T07:36:42.458Z,972.03
2017-12-30T07:37:49.299Z,972.04
2017-12-30T07:38:56.221Z,972.06
2017-12-30T07:40:03.085Z,972.03
2017-12-30T07:41:10.007Z,972.15
2017-12-30T07:42:16.873Z,972.18
2017-12-30T07:43:23.690Z,972.10
2017-12-30T07:44:30.573Z,972.09
2017-12-30T07:45:37.415Z,972.03
2017-12-30T07:46:44.264Z,972.14
2017-12-30T07:47:51.129Z,972.03
2017-12-30T07:48:58.028Z,972.06
2017-12-30T07:50:04.937Z,971.99
2017-12-30T07:51:11.853Z,971.96
2017-12-30T07:52:18.743Z,971.83
2017-12-30T07:53:25.651Z,971.85
2017-12-30T07:54:32.485Z,971.86
2017-12-30T07:55:39.313Z,971.77
2017-12-30T07:56:46.104Z,971.76
2017-12-30T07:57:52.959Z,971.66
2017-12-30T07:58:59.915Z,971.82
2017-12-30T08:00:06.803Z,971.73
2017-12-30T08:01:13.716Z,971.80
2017-12-30T08:02:20.561Z,971.80
2017-12-30T08:03:27.380Z,971.82
2017-12-30T08:04:34.206Z,971.80
2017-12-30T08:05:41.013Z,971.81
2017-12-30T08:06:47.840Z,971.78
2017-12-30T08:07:54.701Z,971.77
2017-12-30T08:09:01.521Z,971.68
2017-12-30T08:10:08.529Z,971.61
2017-12-30T08:11:15.369Z,971.68
2017-12-30T08:12:22.244Z,971.61
2017-12-30T08:13:29.224Z,971.75
2017-12-30T08:14:36.196Z,971.66
2017-12-30T08:15:43.344Z,971.61
2017-12-30T08:16:50.440Z,971.67
2017-12-30T08:17:57.349Z,971.60
2017-12-30T08:19:04.258Z,971.76
2017-12-30T08:20:11.167Z,971.71
2017-12-30T08:21:17.983Z,971.62
2017-12-30T08:22:24.805Z,971.69
2017-12-30T08:23:31.741Z,971.60
2017-12-30T08:24:38.524Z,971.61
2017-12-30T08:25:45.319Z,971.59
2017-12-30T08:26:52.168Z,971.62
2017-12-30T08:27:58.988Z,971.71
2017-12-30T08:29:05.798Z,971.74
2017-12-30T08:30:12.648Z,971.75
2017-12-30T08:31:19.443Z,971.71
2017-12-30T08:32:26.235Z,971.79
2017-12-30T08:33:33.093Z,971.69
2017-12-30T08:34:39.874Z,971.69
2017-12-30T08:35:46.785Z,971.69
2017-12-30T08:36:53.547Z,971.73
2017-12-30T08:38:00.293Z,971.67
2017-12-30T08:39:07.088Z,971.64
2017-12-30T08:40:14.005Z,971.67
2017-12-30T08:41:20.781Z,971.67
2017-12-30T08:42:27.555Z,971.63
2017-12-30T08:43:34.444Z,971.65
2017-12-30T08:44:41.187Z,971.65
2017-12-30T08:45:47.967Z,971.55
2017-12-30T08:46:54.715Z,971.69
2017-12-30T08:48:01.552Z,971.63
2017-12-30T08:49:08.436Z,971.51
2017-12-30T08:50:15.220Z,971.52
2017-12-30T08:51:22.016Z,971.57
2017-12-30T08:52:28.807Z,971.56
2017-12-30T08:53:35.564Z,971.57
2017-12-30T08:54:42.312Z,971.51
2017-12-30T08:55:49.103Z,971.67
2017-12-30T08:56:55.857Z,971.64
2017-12-30T08:58:02.628Z,971.70
2017-12-30T08:59:09.404Z,971.75
2017-12-30T09:00:16.228Z,971.83
2017-12-30T09:01:22.989Z,971.80
2017-12-30T09:02:29.832Z,971.74
2017-12-30T09:03:36.652Z,971.80
2017-12-30T09:04:43.419Z,971.71
2017-12-30T09:05:50.185Z,971.68
2017-12-30T09:06:56.924Z,971.82
2017-12-30T09:08:03.855Z,971.88
2017-12-30T09:09:10.607Z,971.82
2017-12-30T09:10:17.361Z,971.79
2017-12-30T09:11:24.199Z,971.82
2017-12-30T09:12:30.962Z,971.86
2017-12-30T09:13:37.728Z,971.81
2017-12-30T09:14:44.460Z,971.65
2017-12-30T09:15:51.291Z,971.66
2017-12-30T09:16:58.044Z,971.57
2017-12-30T09:18:04.793Z,971.68
2017-12-30T09:19:11.545Z,971.58
2017-12-30T09:20:18.316Z,971.58
2017-12-30T09:21:25.052Z,971.73
2017-12-30T09:22:31.892Z,971.87
2017-12-30T09:23:38.609Z,971.91
2017-12-30T09:24:45.366Z,971.96
2017-12-30T09:25:52.076Z,972.03
2017-12-30T09:26:58.831Z,972.04
2017-12-30T09:28:05.557Z,971.84
2017-12-30T09:29:12.429Z,971.76
2017-12-30T09:30:19.211Z,971.89
2017-12-30T09:31:25.940Z,972.05
2017-12-30T09:32:32.711Z,972.08
2017-12-30T09:33:40.403Z,972.13
2017-12-30T09:34:46.613Z,972.07
2017-12-30T09:35:53.315Z,972.06
2017-12-30T09:37:00.039Z,972.18
2017-12-30T09:38:06.879Z,972.13
2017-12-30T09:39:13.688Z,972.10
2017-12-30T09:40:20.395Z,972.22
2017-12-30T09:41:27.104Z,972.30
2017-12-30T09:42:33.900Z,972.25
2017-12-30T09:43:40.640Z,972.23
2017-12-30T09:44:47.395Z,972.15
2017-12-30T09:45:54.095Z,972.28
2017-12-30T09:47:00.836Z,972.18
2017-12-30T09:48:07.543Z,972.14
2017-12-30T09:49:14.284Z,972.18
2017-12-30T09:50:21.005Z,972.14
2017-12-30T09:51:27.792Z,972.11
2017-12-30T09:52:34.476Z,972.10
2017-12-30T09:53:41.277Z,972.04
2017-12-30T09:54:48.002Z,971.98
2017-12-30T09:55:54.707Z,971.91
2017-12-30T09:57:01.532Z,971.99
2017-12-30T09:58:08.217Z,972.08
2017-12-30T09:59:15.049Z,972.10
2017-12-30T10:00:21.799Z,972.26
2017-12-30T10:01:28.489Z,972.19
2017-12-30T10:02:35.299Z,972.24
2017-12-30T10:03:42.004Z,972.14
2017-12-30T10:04:48.836Z,972.19
2017-12-30T10:05:55.582Z,972.12
2017-12-30T10:07:02.260Z,972.01
2017-12-30T10:08:09.068Z,972.12
2017-12-30T10:09:15.764Z,972.14
2017-12-30T10:10:22.481Z,971.93
2017-12-30T10:11:29.241Z,971.96
2017-12-30T10:12:35.954Z,971.98
2017-12-30T10:13:42.639Z,971.99
2017-12-30T10:14:49.500Z,971.91
2017-12-30T10:15:56.275Z,971.94
2017-12-30T10:17:03.037Z,971.88
2017-12-30T10:18:09.760Z,971.98
2017-12-30T10:19:16.604Z,971.93
2017-12-30T10:20:23.399Z,972.05
2017-12-30T10:21:30.141Z,971.99
2017-12-30T10:22:36.891Z,971.92
2017-12-30T10:23:43.717Z,971.95
2017-12-30T10:24:50.460Z,971.95
2017-12-30T10:25:57.240Z,971.91
2017-12-30T10:27:03.987Z,971.81
2017-12-30T10:28:10.801Z,971.84
2017-12-30T10:29:17.568Z,971.74
2017-12-30T10:30:24.332Z,971.74
2017-12-30T10:31:31.096Z,971.78
2017-12-30T10:32:37.888Z,971.85
2017-12-30T10:33:44.621Z,971.78
2017-12-30T10:34:51.401Z,971.85
2017-12-30T10:35:58.156Z,971.88
2017-12-30T10:37:05.047Z,971.90
2017-12-30T10:38:12.176Z,971.92
2017-12-30T10:39:18.928Z,971.92
2017-12-30T10:40:25.669Z,971.92
2017-12-30T10:41:32.444Z,971.86
2017-12-30T10:42:39.224Z,971.83
2017-12-30T10:43:45.985Z,971.83
2017-12-30T10:44:52.735Z,971.84
2017-12-30T10:45:59.665Z,971.81
2017-12-30T10:47:06.430Z,971.87
2017-12-30T10:48:13.204Z,971.74
2017-12-30T10:49:19.937Z,971.84
2017-12-30T10:50:26.767Z,971.83
2017-12-30T10:51:33.603Z,971.94
2017-12-30T10:52:40.596Z,971.92
2017-12-30T10:53:47.353Z,972.02
2017-12-30T10:54:54.108Z,971.94
2017-12-30T10:56:00.837Z,971.89
2017-12-30T10:57:07.817Z,972.02
2017-12-30T10:58:14.618Z,971.97
2017-12-30T10:59:21.468Z,971.87
2017-12-30T11:00:28.228Z,971.78
2017-12-30T11:01:35.112Z,971.68
2017-12-30T11:02:41.932Z,971.86
2017-12-30T11:03:48.682Z,972.00
2017-12-30T11:04:55.435Z,972.00
2017-12-30T11:06:02.168Z,972.04
2017-12-30T11:07:09.028Z,972.07
2017-12-30T11:08:15.815Z,972.08
2017-12-30T11:09:22.552Z,972.18
2017-12-30T11:10:29.305Z,972.09
2017-12-30T11:11:36.101Z,972.21
2017-12-30T11:12:42.844Z,972.17
2017-12-30T11:13:49.724Z,972.21
2017-12-30T11:14:56.541Z,972.27
2017-12-30T11:16:03.284Z,972.16
2017-12-30T11:17:10.050Z,972.20
2017-12-30T11:18:16.812Z,972.22
2017-12-30T11:19:23.653Z,972.28
2017-12-30T11:20:30.422Z,972.27
2017-12-30T11:21:37.168Z,972.26
2017-12-30T11:22:43.944Z,972.17
2017-12-30T11:23:50.851Z,972.20
2017-12-30T11:24:57.585Z,972.27
2017-12-30T11:26:04.340Z,972.21
2017-12-30T11:27:11.187Z,972.24
2017-12-30T11:28:17.933Z,972.34
2017-12-30T11:29:24.745Z,972.29
2017-12-30T11:30:31.463Z,972.44
2017-12-30T11:31:38.292Z,972.47
2017-12-30T11:32:45.060Z,972.42
2017-12-30T11:33:51.896Z,972.41
2017-12-30T11:34:59.000Z,972.36
2017-12-30T11:36:05.751Z,972.38
2017-12-30T11:37:12.565Z,972.39
2017-12-30T11:38:19.332Z,972.46
2017-12-30T11:39:26.130Z,972.57
2017-12-30T11:40:32.987Z,972.57
2017-12-30T11:41:39.803Z,972.52
2017-12-30T11:42:46.568Z,972.47
2017-12-30T11:43:53.426Z,972.45
2017-12-30T11:45:00.207Z,972.48
2017-12-30T11:46:06.983Z,972.57
2017-12-30T11:47:13.839Z,972.54
2017-12-30T11:48:20.607Z,972.42
2017-12-30T11:49:27.371Z,972.49
2017-12-30T11:50:34.129Z,972.55
2017-12-30T11:51:40.917Z,972.64
2017-12-30T11:52:47.691Z,972.51
2017-12-30T11:53:54.472Z,972.57
2017-12-30T11:55:01.389Z,972.54
2017-12-30T11:56:08.277Z,972.63
2017-12-30T11:57:15.147Z,972.39
2017-12-30T11:58:21.901Z,972.46
2017-12-30T11:59:28.651Z,972.48
2017-12-30T12:00:35.424Z,972.48
2017-12-30T12:01:42.220Z,972.52
2017-12-30T12:02:48.985Z,972.50
2017-12-30T12:03:55.728Z,972.36
2017-12-30T12:05:02.464Z,972.50
2017-12-30T12:06:09.330Z,972.43
2017-12-30T12:07:16.098Z,972.57
2017-12-30T12:08:22.848Z,972.56
2017-12-30T12:09:29.579Z,972.60
2017-12-30T12:10:36.382Z,972.76
2017-12-30T12:11:43.163Z,972.86
2017-12-30T12:12:49.975Z,973.01
2017-12-30T12:13:56.844Z,972.88
2017-12-30T12:15:03.687Z,972.78
2017-12-30T12:16:10.452Z,972.78
2017-12-30T12:17:17.232Z,972.69
2017-12-30T12:18:24.056Z,972.78
2017-12-30T12:19:30.861Z,972.79
2017-12-30T12:20:37.663Z,972.89
2017-12-30T12:21:44.452Z,972.85
2017-12-30T12:22:51.212Z,972.95
2017-12-30T12:23:57.947Z,972.86
2017-12-30T12:25:04.797Z,972.86
2017-12-30T12:26:11.544Z,972.84
2017-12-30T12:27:18.624Z,972.97
2017-12-30T12:28:25.383Z,972.93
2017-12-30T12:29:32.121Z,972.99
2017-12-30T12:30:38.979Z,973.17
2017-12-30T12:31:45.748Z,973.06
2017-12-30T12:32:52.536Z,973.05
2017-12-30T12:33:59.411Z,973.07
2017-12-30T12:35:06.185Z,973.06
2017-12-30T12:36:12.932Z,973.09
2017-12-30T12:37:19.724Z,973.09
2017-12-30T12:38:26.500Z,973.13
2017-12-30T12:39:33.236Z,973.11
2017-12-30T12:40:39.995Z,973.04
2017-12-30T12:41:46.771Z,972.97
2017-12-30T12:42:53.666Z,973.01
2017-12-30T12:44:00.556Z,973.09
2017-12-30T12:45:07.385Z,973.20
2017-12-30T12:46:14.143Z,973.14
2017-12-30T12:47:20.944Z,973.09
2017-12-30T12:48:27.808Z,973.26
2017-12-30T12:49:34.577Z,973.30
2017-12-30T12:50:41.379Z,973.33
2017-12-30T12:51:48.312Z,973.27
2017-12-30T12:52:55.088Z,973.27
2017-12-30T12:54:01.819Z,973.25
2017-12-30T12:55:08.672Z,973.20
2017-12-30T12:56:15.420Z,973.34
2017-12-30T12:57:22.193Z,973.27
2017-12-30T12:58:28.957Z,973.40
2017-12-30T12:59:35.707Z,973.30
2017-12-30T13:00:42.419Z,973.19
2017-12-30T13:01:49.169Z,973.25
2017-12-30T13:02:55.935Z,973.16
2017-12-30T13:04:02.723Z,973.29
2017-12-30T13:05:09.452Z,973.35
2017-12-30T13:06:16.178Z,973.23
2017-12-30T13:07:22.940Z,973.28
2017-12-30T13:08:29.720Z,973.25
2017-12-30T13:09:36.512Z,973.27
2017-12-30T13:10:43.233Z,973.14
2017-12-30T13:11:50.055Z,973.19
2017-12-30T13:12:56.781Z,973.24
2017-12-30T13:14:03.596Z,973.30
2017-12-30T13:15:10.377Z,973.37
2017-12-30T13:16:17.143Z,973.43
2017-12-30T13:17:23.884Z,973.44
2017-12-30T13:18:30.671Z,973.51
2017-12-30T13:19:37.408Z,973.42
2017-12-30T13:20:44.224Z,973.41
2017-12-30T13:21:51.020Z,973.47
2017-12-30T13:22:57.937Z,973.60
2017-12-30T13:24:04.707Z,973.60
2017-12-30T13:25:11.509Z,973.48
2017-12-30T13:26:18.282Z,973.30
2017-12-30T13:27:25.115Z,973.30
2017-12-30T13:28:32.011Z,973.49
2017-12-30T13:29:38.743Z,973.50
2017-12-30T13:30:45.515Z,973.51
2017-12-30T13:31:52.261Z,973.44
2017-12-30T13:32:59.199Z,973.38
2017-12-30T13:34:06.196Z,973.40
2017-12-30T13:35:12.958Z,973.37
2017-12-30T13:36:19.859Z,973.46
2017-12-30T13:37:26.686Z,973.51
2017-12-30T13:38:33.473Z,973.52
2017-12-30T13:39:40.317Z,973.61
2017-12-30T13:40:47.048Z,973.56
2017-12-30T13:41:53.871Z,973.76
2017-12-30T13:43:01.292Z,973.72
2017-12-30T13:44:07.752Z,973.84
2017-12-30T13:45:14.512Z,973.73
2017-12-30T13:46:21.261Z,973.84
2017-12-30T13:47:27.979Z,973.79
2017-12-30T13:48:34.744Z,973.89
2017-12-30T13:49:41.500Z,973.86
2017-12-30T13:50:48.352Z,973.95
2017-12-30T13:51:55.093Z,973.83
2017-12-30T13:53:01.836Z,973.84